Time;durP1;ratioP1;P1;durP2;ratioP2;P2;SDS_P1;SDS_P2;PMS_P1;PMS_P2;Temp;Humidity;BMP_temperature;BMP_pressure;BME280_temperature;BME280_humidity;BME280_pressure;Samples;Min_cycle;Max_cycle;Signal;HPM_P1;HPM_P2
2021/12/19 00:01:20;;;;;;;18.23;12.07;;;6.60;99.90;;;;;;5034996;28;20245;-60
2021/12/19 00:03:57;;;;;;;18.57;12.13;;;6.70;99.90;;;;;;5034614;28;20234;-59
2021/12/19 00:09:09;;;;;;;16.17;10.37;;;6.60;99.90;;;;;;5035197;28;20259;-59
2021/12/19 00:11:35;;;;;;;19.10;11.77;;;6.50;99.90;;;;;;5034972;28;20207;-60
2021/12/19 00:14:03;;;;;;;21.43;13.03;;;6.50;99.90;;;;;;5034453;28;20226;-59
2021/12/19 00:16:30;;;;;;;27.27;16.80;;;6.50;99.90;;;;;;5034776;28;20573;-61
2021/12/19 00:18:58;;;;;;;28.30;17.93;;;6.50;99.90;;;;;;5034941;28;20206;-61
2021/12/19 00:21:26;;;;;;;27.77;16.93;;;6.40;99.90;;;;;;5034766;28;20257;-60
2021/12/19 00:23:54;;;;;;;27.10;17.13;;;6.40;99.90;;;;;;5034496;28;20313;-59
2021/12/19 00:26:21;;;;;;;29.77;18.27;;;6.30;99.90;;;;;;5034571;28;20210;-60
2021/12/19 00:28:49;;;;;;;29.27;17.83;;;6.30;99.90;;;;;;5034520;28;20740;-60
2021/12/19 00:31:16;;;;;;;25.70;16.53;;;6.40;99.90;;;;;;5034627;28;20209;-60
2021/12/19 00:33:43;;;;;;;25.53;15.03;;;6.30;99.90;;;;;;5034351;28;20296;-60
2021/12/19 00:36:11;;;;;;;24.47;16.00;;;6.30;99.90;;;;;;5034506;28;20259;-60
2021/12/19 00:38:38;;;;;;;26.07;15.37;;;6.30;99.90;;;;;;5034697;28;20256;-59
2021/12/19 00:41:05;;;;;;;24.30;14.00;;;6.30;99.90;;;;;;5034735;28;20222;-61
2021/12/19 00:43:35;;;;;;;19.63;12.47;;;6.40;99.90;;;;;;5034314;28;20230;-60
2021/12/19 00:46:07;;;;;;;19.10;11.63;;;6.30;99.90;;;;;;5034246;28;20578;-59
2021/12/19 00:48:34;;;;;;;14.97;9.73;;;6.30;99.90;;;;;;5034386;28;20206;-59
2021/12/19 00:51:01;;;;;;;16.80;10.53;;;6.10;99.90;;;;;;5034122;28;20670;-59
2021/12/19 00:53:29;;;;;;;17.27;11.23;;;6.00;99.90;;;;;;5033813;28;20222;-59
2021/12/19 00:55:56;;;;;;;20.30;13.00;;;6.10;99.90;;;;;;5034348;28;20210;-59
2021/12/19 00:58:23;;;;;;;22.37;13.93;;;6.20;99.90;;;;;;5034098;28;20670;-59
2021/12/19 01:00:49;;;;;;;26.07;15.27;;;6.20;99.90;;;;;;5033459;28;20698;-60
2021/12/19 01:03:16;;;;;;;22.97;14.30;;;6.20;99.90;;;;;;5034012;28;20238;-59
2021/12/19 01:05:43;;;;;;;24.23;14.60;;;6.30;99.90;;;;;;5033943;28;20206;-59
2021/12/19 01:08:12;;;;;;;25.00;15.17;;;6.30;99.90;;;;;;5033877;28;20257;-60
2021/12/19 01:10:42;;;;;;;23.37;15.37;;;6.30;99.90;;;;;;5033888;28;20759;-60
2021/12/19 01:13:09;;;;;;;23.73;14.63;;;6.30;99.90;;;;;;5033505;28;20230;-60
2021/12/19 01:15:35;;;;;;;24.37;14.70;;;6.30;99.90;;;;;;5033947;28;20213;-60
2021/12/19 01:18:04;;;;;;;21.97;14.10;;;6.30;99.90;;;;;;5033685;28;20206;-61
2021/12/19 01:20:36;;;;;;;21.03;13.93;;;6.30;99.90;;;;;;5033523;28;20207;-60
2021/12/19 01:23:04;;;;;;;24.03;14.87;;;6.30;99.90;;;;;;5033700;28;20276;-60
2021/12/19 01:25:31;;;;;;;25.40;14.87;;;6.20;99.90;;;;;;5033707;28;20284;-60
2021/12/19 01:27:59;;;;;;;23.33;15.53;;;6.10;99.90;;;;;;5033781;28;20474;-60
2021/12/19 01:30:27;;;;;;;23.17;15.27;;;6.10;99.90;;;;;;5033686;28;20363;-60
2021/12/19 01:32:54;;;;;;;21.33;14.23;;;5.90;99.90;;;;;;5033748;28;20650;-60
2021/12/19 01:35:24;;;;;;;26.00;15.20;;;5.80;99.90;;;;;;5033201;28;20206;-61
2021/12/19 01:37:51;;;;;;;25.80;16.37;;;5.80;99.90;;;;;;5033918;28;20604;-60
2021/12/19 01:40:19;;;;;;;26.37;16.60;;;5.80;99.90;;;;;;5033486;28;20206;-60
2021/12/19 01:42:48;;;;;;;26.97;17.57;;;5.80;99.90;;;;;;5033192;28;20265;-60
2021/12/19 01:45:23;;;;;;;27.03;18.03;;;5.80;99.90;;;;;;5032963;28;20205;-60
2021/12/19 01:47:50;;;;;;;28.50;17.60;;;5.80;99.90;;;;;;5033137;28;20210;-60
2021/12/19 01:50:17;;;;;;;26.47;17.37;;;5.90;99.90;;;;;;5033337;28;20559;-60
2021/12/19 01:52:44;;;;;;;27.73;17.53;;;5.90;99.90;;;;;;5033662;28;20252;-60
2021/12/19 01:55:11;;;;;;;28.27;18.13;;;5.90;99.90;;;;;;5033248;28;20264;-60
2021/12/19 01:57:37;;;;;;;27.33;16.13;;;5.90;99.90;;;;;;5033576;28;20210;-64
2021/12/19 02:00:08;;;;;;;24.83;15.90;;;5.90;99.90;;;;;;5033724;28;20256;-59
2021/12/19 02:02:36;;;;;;;25.43;15.37;;;5.90;99.90;;;;;;5033487;28;20230;-59
2021/12/19 02:05:03;;;;;;;23.87;15.43;;;5.90;99.90;;;;;;5034035;28;20642;-59
2021/12/19 02:07:30;;;;;;;24.10;15.30;;;5.90;99.90;;;;;;5035019;28;20724;-59
2021/12/19 02:09:56;;;;;;;26.93;16.17;;;5.90;99.90;;;;;;5032954;28;20210;-60
2021/12/19 02:12:23;;;;;;;23.93;15.50;;;5.90;99.90;;;;;;5031897;28;20693;-59
2021/12/19 02:14:50;;;;;;;24.13;15.10;;;5.80;99.90;;;;;;5032313;28;20230;-60
2021/12/19 02:17:17;;;;;;;23.57;14.60;;;5.90;99.90;;;;;;5032845;28;20210;-60
2021/12/19 02:19:45;;;;;;;22.00;14.23;;;5.80;99.90;;;;;;5032566;28;20674;-59
2021/12/19 02:22:13;;;;;;;23.47;15.07;;;5.80;99.90;;;;;;5032597;28;20226;-60
2021/12/19 02:24:39;;;;;;;23.50;14.77;;;5.90;99.90;;;;;;5032363;28;20222;-60
2021/12/19 02:27:06;;;;;;;28.67;17.03;;;5.90;99.90;;;;;;5032457;28;20210;-60
2021/12/19 02:29:33;;;;;;;28.10;16.90;;;5.90;99.90;;;;;;5032792;28;20206;-60
2021/12/19 02:32:01;;;;;;;25.73;16.67;;;5.90;99.90;;;;;;5032501;28;20248;-60
2021/12/19 02:34:31;;;;;;;28.53;17.60;;;5.90;99.90;;;;;;5032286;28;20234;-60
2021/12/19 02:37:04;;;;;;;26.53;16.63;;;5.90;99.90;;;;;;5032428;28;20216;-60
2021/12/19 02:39:50;;;;;;;28.07;17.23;;;5.90;99.90;;;;;;5032330;28;20289;-60
2021/12/19 02:50:29;;;;;;;22.63;14.13;;;5.80;99.90;;;;;;5032218;28;20578;-60
2021/12/19 02:52:58;;;;;;;21.43;12.83;;;5.80;99.90;;;;;;5032277;28;20226;-60
2021/12/19 02:55:26;;;;;;;18.87;12.50;;;5.80;99.90;;;;;;5032148;28;20268;-60
2021/12/19 02:57:54;;;;;;;19.07;12.47;;;5.80;99.90;;;;;;5032134;28;20267;-60
2021/12/19 03:00:25;;;;;;;20.93;12.23;;;5.90;99.90;;;;;;5031925;28;20675;-60
2021/12/19 03:02:52;;;;;;;20.90;13.20;;;5.90;99.90;;;;;;5032013;28;20230;-60
2021/12/19 03:05:18;;;;;;;22.60;12.87;;;5.80;99.90;;;;;;5031851;28;20206;-60
2021/12/19 03:07:45;;;;;;;19.90;12.70;;;5.80;99.90;;;;;;5032301;28;20704;-60
2021/12/19 03:10:43;;;;;;;17.43;11.43;;;5.80;99.90;;;;;;5032181;28;20631;-60
2021/12/19 03:13:21;;;;;;;17.77;11.10;;;5.80;99.90;;;;;;5031628;28;20705;-60
2021/12/19 03:18:33;;;;;;;17.27;11.47;;;5.80;99.90;;;;;;5032170;28;20208;-60
2021/12/19 03:21:00;;;;;;;17.27;11.43;;;5.80;99.90;;;;;;5031844;28;20577;-60
2021/12/19 03:23:28;;;;;;;19.73;11.77;;;5.80;99.90;;;;;;5033329;28;20230;-60
2021/12/19 03:25:54;;;;;;;19.13;12.43;;;5.80;99.90;;;;;;5035783;28;20267;-59
2021/12/19 03:28:22;;;;;;;22.30;13.37;;;5.70;99.90;;;;;;5035994;28;20218;-60
2021/12/19 03:30:49;;;;;;;22.10;13.60;;;5.70;99.90;;;;;;5035859;28;20206;-60
2021/12/19 03:33:16;;;;;;;19.70;12.73;;;5.60;99.90;;;;;;5035742;28;20218;-60
2021/12/19 03:35:44;;;;;;;22.20;13.30;;;5.70;99.90;;;;;;5035475;28;20206;-60
2021/12/19 03:38:12;;;;;;;22.23;13.97;;;5.70;99.90;;;;;;5035490;28;20697;-60
2021/12/19 03:40:43;;;;;;;27.03;15.17;;;5.70;99.90;;;;;;5037807;28;20210;-60
2021/12/19 03:43:12;;;;;;;24.70;15.17;;;5.70;99.90;;;;;;5038274;28;20234;-59
2021/12/19 03:45:41;;;;;;;21.90;14.83;;;5.70;99.90;;;;;;5038533;28;20206;-60
2021/12/19 03:48:11;;;;;;;22.67;14.67;;;5.80;99.90;;;;;;5037766;28;20210;-60
2021/12/19 03:50:39;;;;;;;25.90;15.40;;;5.80;99.90;;;;;;5036229;28;20268;-60
2021/12/19 03:53:06;;;;;;;26.27;16.23;;;5.70;99.90;;;;;;5035607;28;20222;-61
2021/12/19 03:55:33;;;;;;;28.00;16.90;;;5.80;99.90;;;;;;5035382;28;20634;-60
2021/12/19 03:58:00;;;;;;;27.70;16.30;;;5.80;99.90;;;;;;5035693;28;20260;-60
2021/12/19 04:00:28;;;;;;;22.60;15.93;;;5.80;99.90;;;;;;5035493;28;20206;-60
2021/12/19 04:02:58;;;;;;;25.03;16.17;;;5.70;99.90;;;;;;5035023;28;20717;-59
2021/12/19 04:05:26;;;;;;;26.70;16.47;;;5.60;99.90;;;;;;5035059;28;20747;-60
2021/12/19 04:07:53;;;;;;;23.90;15.03;;;5.60;99.90;;;;;;5034966;28;20674;-60
2021/12/19 04:10:21;;;;;;;23.17;15.70;;;5.50;99.90;;;;;;5035035;28;20210;-60
2021/12/19 04:12:49;;;;;;;25.17;16.27;;;5.60;99.90;;;;;;5035097;28;20234;-59
2021/12/19 04:15:16;;;;;;;26.70;16.20;;;5.50;99.90;;;;;;5034606;28;20670;-60
2021/12/19 04:17:43;;;;;;;28.13;16.93;;;5.40;99.90;;;;;;5034778;28;20202;-60
2021/12/19 04:20:15;;;;;;;26.83;17.70;;;5.50;99.90;;;;;;5035236;28;20210;-60
2021/12/19 04:22:42;;;;;;;27.57;17.27;;;5.50;99.90;;;;;;5034715;28;20226;-60
2021/12/19 04:25:09;;;;;;;26.47;16.10;;;5.50;99.90;;;;;;5034785;28;20260;-60
2021/12/19 04:27:37;;;;;;;27.30;17.47;;;5.40;99.90;;;;;;5034804;28;20214;-59
2021/12/19 04:30:05;;;;;;;25.60;16.00;;;5.40;99.90;;;;;;5034638;28;20211;-60
2021/12/19 04:32:37;;;;;;;24.70;16.30;;;5.50;99.90;;;;;;5034830;28;20214;-60
2021/12/19 04:35:04;;;;;;;27.00;16.73;;;5.40;99.90;;;;;;5033693;28;20217;-59
2021/12/19 04:37:58;;;;;;;24.60;14.70;;;5.40;99.90;;;;;;5034523;28;20588;-59
2021/12/19 04:40:29;;;;;;;25.77;15.37;;;5.50;99.90;;;;;;5034248;28;20634;-60
2021/12/19 04:51:22;;;;;;;22.63;14.50;;;5.90;99.90;;;;;;5034371;28;20205;-61
2021/12/19 04:54:02;;;;;;;21.50;14.40;;;6.00;99.90;;;;;;5034225;28;20612;-60
2021/12/19 04:56:41;;;;;;;26.60;15.50;;;6.10;99.90;;;;;;5034334;28;20554;-60
2021/12/19 04:59:35;;;;;;;25.53;16.33;;;6.00;99.90;;;;;;5034157;28;20626;-60
2021/12/19 05:02:13;;;;;;;27.70;16.47;;;6.00;99.90;;;;;;5033938;28;20233;-60
2021/12/19 05:05:15;;;;;;;30.90;16.70;;;6.00;99.90;;;;;;5034427;28;20296;-61
2021/12/19 05:15:53;;;;;;;27.30;16.80;;;5.90;99.90;;;;;;5033691;28;20602;-60
2021/12/19 05:18:22;;;;;;;26.43;17.03;;;5.90;99.90;;;;;;5033667;28;20271;-61
2021/12/19 05:20:55;;;;;;;29.63;17.13;;;6.00;99.90;;;;;;5033864;28;20206;-60
2021/12/19 05:23:27;;;;;;;26.80;15.90;;;6.10;99.90;;;;;;5034147;28;20238;-60
2021/12/19 05:25:55;;;;;;;29.00;17.03;;;6.10;99.90;;;;;;5034036;28;20210;-61
2021/12/19 05:28:21;;;;;;;29.23;16.93;;;6.00;99.90;;;;;;5033823;28;20202;-61
2021/12/19 05:30:48;;;;;;;25.10;15.43;;;6.00;99.90;;;;;;5033551;28;20209;-61
2021/12/19 05:33:16;;;;;;;25.60;15.33;;;6.10;99.90;;;;;;5033617;28;20604;-59
2021/12/19 05:36:09;;;;;;;28.67;17.00;;;6.10;99.90;;;;;;5033314;28;20202;-60
2021/12/19 05:45:11;;;;;;;32.13;18.47;;;6.20;99.90;;;;;;5033104;28;20315;-60
2021/12/19 05:47:02;;;;;;;36.30;19.53;;;6.20;99.90;;;;;;5032973;28;20210;-60
2021/12/19 05:49:29;;;;;;;32.47;18.33;;;6.20;99.90;;;;;;5032919;28;20203;-59
2021/12/19 05:51:57;;;;;;;32.17;18.03;;;6.20;99.90;;;;;;5033323;28;20202;-60
2021/12/19 05:54:23;;;;;;;30.17;18.13;;;6.20;99.90;;;;;;5032841;28;20230;-60
2021/12/19 05:56:52;;;;;;;32.93;18.37;;;6.20;99.90;;;;;;5033021;28;20612;-60
2021/12/19 05:59:19;;;;;;;32.83;18.23;;;6.20;99.90;;;;;;5033116;28;20296;-60
2021/12/19 06:01:46;;;;;;;31.73;17.87;;;6.20;99.90;;;;;;5032836;28;20733;-60
2021/12/19 06:04:13;;;;;;;30.50;18.10;;;6.20;99.90;;;;;;5032428;28;20587;-60
2021/12/19 06:06:40;;;;;;;31.83;17.83;;;6.10;99.90;;;;;;5032943;28;20214;-60
2021/12/19 06:09:06;;;;;;;33.43;18.37;;;6.00;99.90;;;;;;5032982;28;20206;-60
2021/12/19 06:11:33;;;;;;;30.80;17.80;;;6.00;99.90;;;;;;5032804;28;20272;-60
2021/12/19 06:14:01;;;;;;;29.40;16.63;;;6.00;99.90;;;;;;5032402;28;20230;-60
2021/12/19 06:16:28;;;;;;;30.37;17.43;;;6.00;99.90;;;;;;5032512;28;20576;-60
2021/12/19 06:18:55;;;;;;;29.77;17.50;;;6.00;99.90;;;;;;5032750;28;20284;-60
2021/12/19 06:21:21;;;;;;;32.60;18.00;;;6.00;99.90;;;;;;5032720;28;20260;-60
2021/12/19 06:23:48;;;;;;;31.73;17.33;;;6.10;99.90;;;;;;5032306;28;20279;-60
2021/12/19 06:26:15;;;;;;;27.43;16.23;;;6.10;99.90;;;;;;5032458;28;20210;-60
2021/12/19 06:28:41;;;;;;;26.03;14.80;;;6.20;99.90;;;;;;5032508;28;20235;-60
2021/12/19 06:31:09;;;;;;;18.30;11.07;;;6.10;99.90;;;;;;5032225;28;20261;-60
2021/12/19 06:33:36;;;;;;;18.23;11.13;;;6.10;99.90;;;;;;5032273;28;20222;-60
2021/12/19 06:36:04;;;;;;;21.10;11.93;;;6.00;99.90;;;;;;5032290;28;20213;-59
2021/12/19 06:38:31;;;;;;;19.23;11.80;;;6.00;99.90;;;;;;5032299;28;20209;-60
2021/12/19 06:40:57;;;;;;;17.30;10.70;;;6.10;99.90;;;;;;5032160;28;20613;-60
2021/12/19 06:43:25;;;;;;;15.07;9.10;;;6.00;99.90;;;;;;5032173;28;20675;-60
2021/12/19 06:45:52;;;;;;;15.60;9.77;;;5.90;99.90;;;;;;5031892;28;20206;-60
2021/12/19 06:48:22;;;;;;;12.67;8.50;;;6.00;99.90;;;;;;5032270;28;20210;-60
2021/12/19 06:50:49;;;;;;;11.83;8.37;;;6.00;99.90;;;;;;5032346;28;20210;-60
2021/12/19 06:53:16;;;;;;;14.80;8.23;;;6.00;99.90;;;;;;5032113;28;20301;-60
2021/12/19 06:55:43;;;;;;;12.30;8.00;;;6.10;99.90;;;;;;5031638;28;20740;-59
2021/12/19 06:58:09;;;;;;;15.13;8.43;;;6.10;99.90;;;;;;5031456;28;20732;-60
2021/12/19 07:00:37;;;;;;;13.30;8.17;;;6.10;99.90;;;;;;5032231;28;20210;-59
2021/12/19 07:03:03;;;;;;;11.67;8.03;;;6.20;99.90;;;;;;5031748;28;20657;-59
2021/12/19 07:05:31;;;;;;;11.63;7.50;;;6.20;99.90;;;;;;5031860;28;20558;-59
2021/12/19 07:07:58;;;;;;;11.00;7.40;;;6.10;99.90;;;;;;5032003;28;20280;-59
2021/12/19 07:10:25;;;;;;;13.07;8.00;;;6.10;99.90;;;;;;5032068;28;20206;-59
2021/12/19 07:12:51;;;;;;;12.23;7.57;;;6.10;99.90;;;;;;5032197;28;20210;-59
2021/12/19 07:15:18;;;;;;;11.50;7.70;;;6.20;99.90;;;;;;5031845;28;20202;-60
2021/12/19 07:17:46;;;;;;;12.93;7.17;;;6.20;99.90;;;;;;5031945;28;20560;-59
2021/12/19 07:20:13;;;;;;;12.87;7.50;;;6.20;99.90;;;;;;5032117;28;20256;-60
2021/12/19 07:22:41;;;;;;;12.63;8.13;;;6.00;99.90;;;;;;5031708;28;20244;-60
2021/12/19 07:25:08;;;;;;;14.03;7.33;;;5.90;99.90;;;;;;5031250;28;20202;-60
2021/12/19 07:27:36;;;;;;;12.53;7.67;;;6.00;99.90;;;;;;5031616;28;20719;-60
2021/12/19 07:30:04;;;;;;;11.97;7.70;;;6.10;99.90;;;;;;5031874;28;20271;-60
2021/12/19 07:32:32;;;;;;;14.37;8.73;;;6.10;99.90;;;;;;5031587;28;20591;-60
2021/12/19 07:34:59;;;;;;;12.20;7.23;;;6.20;99.90;;;;;;5031454;28;20335;-60
2021/12/19 07:37:26;;;;;;;12.07;6.83;;;6.30;99.90;;;;;;5031438;28;20280;-60
2021/12/19 07:39:57;;;;;;;10.60;6.47;;;6.30;99.90;;;;;;5031419;28;20206;-60
2021/12/19 07:42:24;;;;;;;13.73;8.00;;;6.40;99.90;;;;;;5031659;28;20207;-61
2021/12/19 07:44:51;;;;;;;13.87;8.07;;;6.40;99.90;;;;;;5031905;28;20226;-59
2021/12/19 07:47:18;;;;;;;11.80;7.33;;;6.40;99.90;;;;;;5031821;28;20233;-59
2021/12/19 07:49:44;;;;;;;11.80;7.70;;;6.40;99.90;;;;;;5031533;28;20214;-59
2021/12/19 07:52:11;;;;;;;9.57;6.37;;;6.40;99.90;;;;;;5031530;28;20210;-61
2021/12/19 07:54:38;;;;;;;15.73;9.40;;;6.30;99.90;;;;;;5031532;28;20283;-60
2021/12/19 07:57:06;;;;;;;10.30;6.97;;;6.30;99.90;;;;;;5031512;28;20210;-60
2021/12/19 07:59:33;;;;;;;10.87;6.93;;;6.30;99.90;;;;;;5031745;28;20214;-60
2021/12/19 08:02:02;;;;;;;9.97;6.67;;;6.40;99.90;;;;;;5031756;28;20210;-60
2021/12/19 08:04:28;;;;;;;10.17;5.93;;;6.40;99.90;;;;;;5031037;28;20241;-60
2021/12/19 08:06:55;;;;;;;11.13;6.47;;;6.40;99.90;;;;;;5031414;28;20214;-59
2021/12/19 08:09:23;;;;;;;10.23;6.60;;;6.50;99.90;;;;;;5031517;28;20728;-59
2021/12/19 08:11:51;;;;;;;10.03;6.00;;;6.40;99.90;;;;;;5035063;28;20207;-59
2021/12/19 08:14:19;;;;;;;8.60;5.60;;;6.50;99.90;;;;;;5034708;28;20562;-60
2021/12/19 08:16:47;;;;;;;9.17;6.23;;;6.50;99.90;;;;;;5035009;28;20261;-59
2021/12/19 08:19:14;;;;;;;10.37;6.20;;;6.50;99.90;;;;;;5034829;28;20213;-60
2021/12/19 08:21:41;;;;;;;10.63;5.93;;;6.50;99.90;;;;;;5035120;28;20297;-59
2021/12/19 08:24:11;;;;;;;11.33;6.20;;;6.40;99.90;;;;;;5034381;28;20281;-61
2021/12/19 08:26:39;;;;;;;14.90;7.50;;;6.40;99.90;;;;;;5034857;28;20207;-59
2021/12/19 08:29:06;;;;;;;10.00;6.50;;;6.50;99.90;;;;;;5034705;28;20210;-60
2021/12/19 08:31:34;;;;;;;17.93;10.40;;;6.60;99.90;;;;;;5034918;28;20217;-60
2021/12/19 08:34:01;;;;;;;8.47;5.77;;;6.70;99.90;;;;;;5034228;28;20272;-60
2021/12/19 08:36:28;;;;;;;12.47;6.30;;;6.70;99.90;;;;;;5034586;28;20674;-60
2021/12/19 08:38:55;;;;;;;7.27;5.07;;;6.70;99.90;;;;;;5034580;28;20214;-60
2021/12/19 08:41:22;;;;;;;7.83;5.50;;;6.80;99.90;;;;;;5034412;28;20207;-60
2021/12/19 08:43:48;;;;;;;8.33;4.87;;;6.80;99.90;;;;;;5034189;28;20261;-60
2021/12/19 08:46:16;;;;;;;7.77;5.07;;;6.90;99.90;;;;;;5034115;28;20280;-61
2021/12/19 08:48:44;;;;;;;7.87;5.60;;;7.00;99.90;;;;;;5034142;28;20210;-60
2021/12/19 08:51:11;;;;;;;8.97;5.30;;;7.00;99.90;;;;;;5034428;28;20617;-60
2021/12/19 08:53:38;;;;;;;7.40;5.13;;;7.00;99.90;;;;;;5034180;28;20219;-60
2021/12/19 08:56:05;;;;;;;7.47;4.93;;;7.00;99.90;;;;;;5033939;28;20214;-60
2021/12/19 08:58:31;;;;;;;7.57;4.60;;;7.00;99.90;;;;;;5034330;28;20210;-60
2021/12/19 09:01:01;;;;;;;7.47;5.10;;;7.10;99.90;;;;;;5034313;28;20210;-61
2021/12/19 09:03:29;;;;;;;7.50;5.13;;;7.10;99.90;;;;;;5033891;28;20232;-60
2021/12/19 09:05:57;;;;;;;9.20;5.33;;;7.10;99.90;;;;;;5033859;28;20210;-60
2021/12/19 09:08:24;;;;;;;7.40;5.20;;;7.20;99.90;;;;;;5034202;28;20206;-59
2021/12/19 09:10:51;;;;;;;6.50;4.80;;;7.20;99.90;;;;;;5033845;28;20206;-59
2021/12/19 09:13:18;;;;;;;7.60;5.40;;;7.20;99.90;;;;;;5033915;28;20288;-59
2021/12/19 09:15:45;;;;;;;7.43;5.27;;;7.20;99.90;;;;;;5034282;28;20748;-61
2021/12/19 09:18:11;;;;;;;8.00;5.17;;;7.20;99.90;;;;;;5034017;28;20206;-59
2021/12/19 09:20:38;;;;;;;7.60;4.57;;;7.30;99.90;;;;;;5033522;28;20241;-59
2021/12/19 09:23:06;;;;;;;7.63;4.77;;;7.30;99.90;;;;;;5033595;28;20226;-60
2021/12/19 09:25:33;;;;;;;7.33;5.00;;;7.30;99.90;;;;;;5033430;28;20674;-59
2021/12/19 09:27:59;;;;;;;8.87;6.03;;;7.30;99.90;;;;;;5033621;28;20593;-59
2021/12/19 09:30:26;;;;;;;7.27;4.80;;;7.20;99.90;;;;;;5033778;28;20325;-60
2021/12/19 09:32:53;;;;;;;7.43;5.00;;;7.20;99.90;;;;;;5033693;28;20215;-61
2021/12/19 09:35:20;;;;;;;7.67;4.77;;;7.20;99.90;;;;;;5033243;28;20260;-60
2021/12/19 09:37:47;;;;;;;8.77;5.30;;;7.30;99.90;;;;;;5033506;28;20268;-60
2021/12/19 09:40:21;;;;;;;10.13;5.60;;;7.30;99.90;;;;;;5033541;28;20601;-60
2021/12/19 09:42:49;;;;;;;9.97;6.00;;;7.30;99.90;;;;;;5033125;28;20202;-59
2021/12/19 09:45:17;;;;;;;6.80;5.10;;;7.30;99.90;;;;;;5033159;28;20230;-62
2021/12/19 09:47:44;;;;;;;6.20;4.67;;;7.30;99.90;;;;;;5033131;28;20583;-61
2021/12/19 09:50:11;;;;;;;6.40;5.13;;;7.40;99.90;;;;;;5033251;28;20213;-60
2021/12/19 09:52:38;;;;;;;7.73;5.40;;;7.40;99.90;;;;;;5033010;28;20669;-60
2021/12/19 09:55:06;;;;;;;6.20;5.00;;;7.40;99.90;;;;;;5033132;28;20209;-60
2021/12/19 09:57:34;;;;;;;6.10;5.03;;;7.50;99.90;;;;;;5032909;28;20214;-61
2021/12/19 10:00:00;;;;;;;6.27;4.93;;;7.40;99.90;;;;;;5033146;28;20261;-61
2021/12/19 10:02:27;;;;;;;6.60;5.00;;;7.30;99.90;;;;;;5033095;28;20202;-60
2021/12/19 10:04:54;;;;;;;7.20;4.77;;;7.40;99.90;;;;;;5032457;28;20257;-61
2021/12/19 10:07:24;;;;;;;7.70;5.23;;;7.50;99.90;;;;;;5032746;28;20210;-62
2021/12/19 10:09:59;;;;;;;8.63;5.57;;;7.60;99.90;;;;;;5032780;28;20210;-64
2021/12/19 10:12:49;;;;;;;8.50;6.03;;;7.60;99.90;;;;;;5029361;28;20452;-60
2021/12/19 10:15:19;;;;;;;6.53;4.93;;;7.60;99.90;;;;;;5032509;28;20206;-59
2021/12/19 10:17:47;;;;;;;13.57;9.57;;;7.80;99.90;;;;;;5033075;28;20626;-60
2021/12/19 10:20:15;;;;;;;5.40;4.33;;;8.00;99.90;;;;;;5032419;28;20260;-60
2021/12/19 10:22:44;;;;;;;5.60;4.00;;;8.20;99.90;;;;;;5032339;28;20210;-60
2021/12/19 10:25:21;;;;;;;6.60;3.43;;;8.10;99.90;;;;;;5032340;28;20237;-61
2021/12/19 10:27:50;;;;;;;4.13;3.20;;;8.10;99.90;;;;;;5032447;28;20587;-61
2021/12/19 10:30:25;;;;;;;4.30;3.20;;;8.10;99.90;;;;;;5032331;28;20268;-62
2021/12/19 10:32:58;;;;;;;4.40;3.50;;;8.10;99.90;;;;;;5031214;28;20213;-62
2021/12/19 10:35:29;;;;;;;4.87;3.57;;;8.10;99.90;;;;;;5032446;28;20209;-64
2021/12/19 10:37:56;;;;;;;5.13;3.47;;;8.20;99.90;;;;;;5032161;28;20206;-64
2021/12/19 10:40:23;;;;;;;5.63;3.50;;;8.20;99.90;;;;;;5032250;28;20297;-65
2021/12/19 10:42:55;;;;;;;5.27;4.07;;;8.20;99.90;;;;;;5032048;28;20210;-65
2021/12/19 10:45:33;;;;;;;4.50;3.53;;;8.20;99.90;;;;;;5031667;28;20230;-65
2021/12/19 10:48:25;;;;;;;4.07;3.30;;;8.20;99.90;;;;;;5032010;28;20576;-65
2021/12/19 10:50:57;;;;;;;4.23;3.30;;;8.20;99.90;;;;;;5031889;28;20210;-64
2021/12/19 10:53:27;;;;;;;4.87;2.60;;;8.20;99.90;;;;;;5031843;28;20227;-64
2021/12/19 10:55:55;;;;;;;2.53;2.10;;;8.20;99.90;;;;;;5031995;28;20475;-66
2021/12/19 10:58:25;;;;;;;5.17;3.17;;;8.20;99.90;;;;;;5032146;28;20213;-64
2021/12/19 11:01:12;;;;;;;3.57;2.60;;;8.20;99.90;;;;;;5031953;28;20206;-64
2021/12/19 11:03:43;;;;;;;3.73;2.80;;;8.10;99.90;;;;;;5032177;28;20234;-64
2021/12/19 11:06:20;;;;;;;3.90;2.70;;;8.10;99.90;;;;;;5031937;28;20206;-64
2021/12/19 11:08:47;;;;;;;3.43;2.70;;;8.10;99.90;;;;;;5032507;28;20209;-63
2021/12/19 11:11:34;;;;;;;3.57;2.97;;;8.10;99.90;;;;;;5032502;28;20206;-65
2021/12/19 11:14:02;;;;;;;5.33;3.63;;;8.30;99.90;;;;;;5031771;28;20752;-63
2021/12/19 11:16:30;;;;;;;3.83;3.23;;;8.30;99.90;;;;;;5031374;28;20293;-65
2021/12/19 11:18:57;;;;;;;4.90;3.30;;;8.40;99.90;;;;;;5031979;28;20219;-64
2021/12/19 11:21:23;;;;;;;4.23;3.10;;;8.40;99.90;;;;;;5031783;28;20209;-65
2021/12/19 11:23:50;;;;;;;3.53;2.57;;;8.40;99.90;;;;;;5031725;28;20233;-65
2021/12/19 11:26:20;;;;;;;5.50;3.70;;;8.40;99.90;;;;;;5031596;28;20485;-65
2021/12/19 11:28:47;;;;;;;4.00;3.00;;;8.30;99.90;;;;;;5031776;28;20242;-65
2021/12/19 11:31:14;;;;;;;5.10;2.93;;;8.20;99.90;;;;;;5032160;28;20213;-65
2021/12/19 11:33:58;;;;;;;3.53;2.83;;;8.10;99.90;;;;;;5031852;28;20226;-65
2021/12/19 11:36:26;;;;;;;3.90;3.10;;;8.10;99.90;;;;;;5031679;28;20214;-65
2021/12/19 11:38:54;;;;;;;3.03;2.73;;;8.10;99.90;;;;;;5031922;28;20206;-65
2021/12/19 11:41:21;;;;;;;3.43;2.60;;;8.10;99.90;;;;;;5031608;28;20268;-65
2021/12/19 11:43:50;;;;;;;4.17;2.83;;;8.10;99.90;;;;;;5032285;28;20231;-65
2021/12/19 11:46:22;;;;;;;6.80;3.57;;;8.00;99.90;;;;;;5035299;28;20290;-65
2021/12/19 11:49:11;;;;;;;4.83;3.17;;;7.90;99.90;;;;;;5035561;28;20210;-64
2021/12/19 11:51:37;;;;;;;4.27;3.20;;;7.90;99.90;;;;;;5035540;28;20253;-65
2021/12/19 11:54:13;;;;;;;4.73;3.23;;;7.80;99.90;;;;;;5035347;28;20284;-64
2021/12/19 11:56:39;;;;;;;4.10;3.20;;;7.70;99.90;;;;;;5035608;28;20248;-64
2021/12/19 11:59:20;;;;;;;10.27;7.53;;;7.70;99.90;;;;;;5035190;28;20206;-65
2021/12/19 12:01:47;;;;;;;8.47;6.37;;;7.70;99.90;;;;;;5035449;28;20206;-65
2021/12/19 12:04:17;;;;;;;3.60;3.03;;;7.60;99.90;;;;;;5034626;28;20230;-63
2021/12/19 12:06:53;;;;;;;6.00;4.53;;;7.60;99.90;;;;;;5035482;28;20206;-63
2021/12/19 12:09:29;;;;;;;5.37;4.63;;;7.60;99.90;;;;;;5035216;28;20202;-63
2021/12/19 12:12:12;;;;;;;3.23;2.93;;;7.70;99.90;;;;;;5035095;28;20209;-64
2021/12/19 12:14:42;;;;;;;3.70;3.20;;;7.70;99.90;;;;;;5034842;28;20580;-63
2021/12/19 12:17:14;;;;;;;8.97;6.87;;;7.80;99.90;;;;;;5035183;28;20207;-63
2021/12/19 12:19:45;;;;;;;9.50;6.70;;;7.80;99.90;;;;;;5034988;28;20234;-63
2021/12/19 12:22:36;;;;;;;4.10;3.17;;;7.80;99.90;;;;;;5035113;28;20206;-63
2021/12/19 12:25:30;;;;;;;3.80;3.40;;;7.80;99.90;;;;;;5034599;28;20625;-63
2021/12/19 12:28:03;;;;;;;3.73;3.30;;;7.80;99.90;;;;;;5034995;28;20206;-63
2021/12/19 12:30:32;;;;;;;3.40;3.10;;;7.70;99.90;;;;;;5034793;28;20237;-65
2021/12/19 12:33:01;;;;;;;8.23;6.07;;;7.70;99.90;;;;;;5034659;28;20229;-64
2021/12/19 12:35:31;;;;;;;10.00;7.33;;;7.60;99.90;;;;;;5039102;28;20209;-64
2021/12/19 12:37:59;;;;;;;2.60;2.40;;;7.60;99.90;;;;;;5046198;28;20202;-64
2021/12/19 12:40:31;;;;;;;3.67;2.80;;;7.40;99.90;;;;;;5037715;28;20210;-63
2021/12/19 12:43:08;;;;;;;3.60;3.23;;;7.30;99.90;;;;;;5034995;28;20645;-64
2021/12/19 12:45:49;;;;;;;4.00;3.20;;;7.30;99.90;;;;;;5034500;28;20228;-63
2021/12/19 12:48:26;;;;;;;6.00;4.93;;;7.40;99.90;;;;;;5034432;28;20260;-64
2021/12/19 12:50:54;;;;;;;5.57;4.47;;;7.30;99.90;;;;;;5034357;28;20694;-64
2021/12/19 12:53:28;;;;;;;5.60;3.90;;;7.20;99.90;;;;;;5034416;28;20226;-63
2021/12/19 12:56:09;;;;;;;5.10;4.00;;;7.30;99.90;;;;;;5033497;28;20202;-62
2021/12/19 12:58:38;;;;;;;4.17;3.57;;;7.40;99.90;;;;;;5034161;28;20238;-64
2021/12/19 13:01:23;;;;;;;4.83;4.33;;;7.30;99.90;;;;;;5034521;28;20210;-65
2021/12/19 13:04:12;;;;;;;4.80;4.03;;;7.20;99.90;;;;;;5034338;28;20345;-62
2021/12/19 13:06:44;;;;;;;5.23;4.40;;;7.00;99.90;;;;;;5034162;28;20210;-63
2021/12/19 13:09:13;;;;;;;10.23;8.83;;;7.00;99.90;;;;;;5034125;28;20268;-65
2021/12/19 13:11:40;;;;;;;5.27;4.77;;;6.90;99.90;;;;;;5034329;28;20206;-63
2021/12/19 13:14:16;;;;;;;6.03;5.10;;;7.00;99.90;;;;;;5034274;28;20226;-63
2021/12/19 13:16:47;;;;;;;6.87;5.80;;;6.90;99.90;;;;;;5034104;28;20213;-64
2021/12/19 13:19:43;;;;;;;7.50;6.70;;;6.80;99.90;;;;;;5029769;28;20441;-64
2021/12/19 13:22:13;;;;;;;6.20;5.20;;;7.00;99.90;;;;;;5033838;28;20406;-65
2021/12/19 13:24:41;;;;;;;5.20;4.47;;;7.10;99.90;;;;;;5033205;28;20266;-65
2021/12/19 13:27:11;;;;;;;5.53;4.50;;;7.20;99.90;;;;;;5033554;28;20214;-67
2021/12/19 13:29:39;;;;;;;6.67;5.97;;;7.30;99.90;;;;;;5033372;28;20206;-65
2021/12/19 13:32:24;;;;;;;7.30;6.50;;;7.20;99.90;;;;;;5033439;28;20214;-62
2021/12/19 13:34:51;;;;;;;7.20;6.50;;;7.20;99.90;;;;;;5033288;28;20222;-64